createdAt,value
2018-06-11T00:01:43.445Z,13.40
2018-06-11T00:04:12.536Z,13.73
2018-06-11T00:06:41.596Z,15.07
2018-06-11T00:09:10.652Z,15.67
2018-06-11T00:11:39.738Z,13.50
2018-06-11T00:14:09.045Z,18.17
2018-06-11T00:16:38.102Z,13.67
2018-06-11T00:19:07.404Z,11.57
2018-06-11T00:21:36.709Z,14.03
2018-06-11T00:24:05.790Z,15.20
2018-06-11T00:26:35.197Z,14.47
2018-06-11T00:29:04.301Z,11.70
2018-06-11T00:31:33.366Z,12.50
2018-06-11T00:34:02.737Z,13.23
2018-06-11T00:36:31.895Z,14.53
2018-06-11T00:39:01.002Z,15.73
2018-06-11T00:41:30.403Z,15.53
2018-06-11T00:43:59.454Z,12.00
2018-06-11T00:46:28.721Z,14.97
2018-06-11T00:48:57.802Z,15.07
2018-06-11T00:51:27.121Z,13.57
2018-06-11T00:53:56.384Z,12.00
2018-06-11T00:56:25.525Z,13.03
2018-06-11T00:58:54.861Z,15.87
2018-06-11T01:01:23.938Z,15.00
2018-06-11T01:03:53.086Z,18.60
2018-06-11T01:06:22.409Z,12.73
2018-06-11T01:08:51.457Z,16.13
2018-06-11T01:11:20.589Z,14.20
2018-06-11T01:13:49.887Z,20.20
2018-06-11T01:16:19.389Z,15.50
2018-06-11T01:18:48.731Z,16.07
2018-06-11T01:21:18.082Z,14.23
2018-06-11T01:23:47.155Z,17.30
2018-06-11T01:26:16.819Z,15.67
2018-06-11T01:28:45.915Z,16.00
2018-06-11T01:31:15.309Z,16.10
2018-06-11T01:33:44.451Z,13.40
2018-06-11T01:36:13.525Z,15.87
2018-06-11T01:38:42.659Z,16.10
2018-06-11T01:41:11.764Z,15.80
2018-06-11T01:43:40.829Z,17.45
2018-06-11T01:46:09.920Z,16.00
2018-06-11T01:48:39.016Z,13.90
2018-06-11T01:51:08.451Z,17.40
2018-06-11T01:53:37.517Z,20.40
2018-06-11T01:56:06.825Z,18.80
2018-06-11T01:58:36.100Z,13.50
2018-06-11T02:01:05.401Z,15.37
2018-06-11T02:03:34.522Z,13.30
2018-06-11T02:06:03.809Z,14.60
2018-06-11T02:08:32.863Z,11.33
2018-06-11T02:11:02.195Z,14.63
2018-06-11T02:13:31.471Z,13.43
2018-06-11T02:16:00.523Z,16.53
2018-06-11T02:18:30.509Z,13.57
2018-06-11T02:21:00.061Z,16.10
2018-06-11T02:23:29.205Z,16.73
2018-06-11T02:25:58.293Z,16.03
2018-06-11T02:28:27.377Z,16.50
2018-06-11T02:30:56.460Z,18.37
2018-06-11T02:33:25.513Z,17.40
2018-06-11T02:35:54.582Z,19.07
2018-06-11T02:38:24.025Z,18.33
2018-06-11T02:40:53.135Z,15.67
2018-06-11T02:43:22.427Z,18.47
2018-06-11T02:45:51.545Z,18.13
2018-06-11T02:48:20.821Z,21.33
2018-06-11T02:50:49.929Z,18.97
2018-06-11T02:53:19.456Z,18.90
2018-06-11T02:55:48.630Z,20.60
2018-06-11T02:58:17.710Z,19.90
2018-06-11T03:00:46.855Z,23.60
2018-06-11T03:03:16.147Z,20.80
2018-06-11T03:05:45.242Z,26.07
2018-06-11T03:08:14.466Z,20.00
2018-06-11T03:10:43.736Z,20.30
2018-06-11T03:13:13.010Z,23.13
2018-06-11T03:15:42.297Z,17.70
2018-06-11T03:18:11.608Z,21.00
2018-06-11T03:20:40.718Z,12.63
2018-06-11T03:23:10.049Z,17.40
2018-06-11T03:25:39.099Z,16.53
2018-06-11T03:28:08.161Z,18.63
2018-06-11T03:30:37.264Z,19.40
2018-06-11T03:33:06.556Z,19.87
2018-06-11T03:35:35.636Z,19.40
2018-06-11T03:38:04.833Z,27.30
2018-06-11T03:40:33.932Z,18.93
2018-06-11T03:43:03.041Z,17.27
2018-06-11T03:45:32.105Z,18.70
2018-06-11T03:48:01.205Z,18.43
2018-06-11T03:50:30.289Z,14.17
2018-06-11T03:52:59.379Z,16.60
2018-06-11T03:55:28.466Z,15.30
2018-06-11T03:57:57.753Z,12.93
2018-06-11T04:00:26.877Z,21.47
2018-06-11T04:02:55.940Z,21.03
2018-06-11T04:05:25.221Z,22.00
2018-06-11T04:07:54.355Z,27.30
2018-06-11T04:10:23.426Z,20.40
2018-06-11T04:12:52.481Z,21.40
2018-06-11T04:15:21.655Z,19.47
2018-06-11T04:17:50.705Z,19.50
2018-06-11T04:20:20.023Z,17.27
2018-06-11T04:22:49.121Z,24.87
2018-06-11T04:25:18.460Z,19.57
2018-06-11T04:27:47.506Z,21.33
2018-06-11T04:30:16.813Z,22.10
2018-06-11T04:32:45.894Z,17.13
2018-06-11T04:35:14.952Z,19.07
2018-06-11T04:37:44.094Z,17.37
2018-06-11T04:40:13.439Z,23.53
2018-06-11T04:42:42.563Z,20.93
2018-06-11T04:45:11.881Z,19.20
2018-06-11T04:47:47.369Z,16.47
2018-06-11T04:50:16.712Z,20.53
2018-06-11T04:52:45.760Z,19.10
2018-06-11T04:55:14.908Z,15.30
2018-06-11T04:57:43.998Z,28.83
2018-06-11T05:00:13.301Z,20.03
2018-06-11T05:02:42.574Z,18.30
2018-06-11T05:05:11.772Z,20.73
2018-06-11T05:07:40.840Z,18.90
2018-06-11T05:10:09.913Z,15.47
2018-06-11T05:12:39.065Z,17.60
2018-06-11T05:15:08.917Z,21.23
2018-06-11T05:17:38.885Z,23.93
2018-06-11T05:20:08.241Z,22.10
2018-06-11T05:22:37.272Z,28.70
2018-06-11T05:25:07.329Z,24.47
2018-06-11T05:27:36.562Z,21.87
2018-06-11T05:30:05.990Z,24.83
2018-06-11T05:32:35.114Z,26.17
2018-06-11T05:35:04.306Z,18.83
2018-06-11T05:37:39.948Z,16.40
2018-06-11T05:40:09.049Z,16.53
2018-06-11T05:42:38.142Z,18.33
2018-06-11T05:45:07.286Z,22.23
2018-06-11T05:47:36.640Z,24.00
2018-06-11T05:50:05.797Z,19.40
2018-06-11T05:52:35.046Z,19.83
2018-06-11T05:55:04.579Z,18.57
2018-06-11T05:57:33.633Z,15.17
2018-06-11T06:00:03.131Z,11.40
2018-06-11T06:02:32.353Z,19.80
2018-06-11T06:05:01.795Z,17.63
2018-06-11T06:07:31.145Z,18.70
2018-06-11T06:10:01.078Z,16.80
2018-06-11T06:12:30.353Z,18.90
2018-06-11T06:14:59.429Z,20.20
2018-06-11T06:17:28.957Z,21.73
2018-06-11T06:19:58.049Z,14.70
2018-06-11T06:22:27.093Z,14.30
2018-06-11T06:24:56.158Z,21.20
2018-06-11T06:27:25.274Z,21.10
2018-06-11T06:29:54.628Z,17.80
2018-06-11T06:32:23.741Z,21.37
2018-06-11T06:34:53.206Z,20.27
2018-06-11T06:37:22.285Z,20.03
2018-06-11T06:39:51.653Z,22.60
2018-06-11T06:42:20.721Z,23.63
2018-06-11T06:44:50.011Z,21.57
2018-06-11T06:47:19.373Z,22.93
2018-06-11T06:49:48.451Z,18.03
2018-06-11T06:52:17.869Z,22.90
2018-06-11T06:54:46.989Z,23.33
2018-06-11T06:57:16.614Z,20.60
2018-06-11T06:59:45.921Z,22.60
2018-06-11T07:02:15.254Z,17.97
2018-06-11T07:04:44.560Z,28.77
2018-06-11T07:07:13.769Z,27.47
2018-06-11T07:09:43.112Z,22.87
2018-06-11T07:12:12.441Z,20.20
2018-06-11T07:14:41.735Z,22.13
2018-06-11T07:17:10.973Z,21.90
2018-06-11T07:19:40.030Z,22.53
2018-06-11T07:22:09.320Z,25.87
2018-06-11T07:24:38.445Z,15.07
2018-06-11T07:27:07.728Z,13.57
2018-06-11T07:29:36.995Z,14.43
2018-06-11T07:32:06.130Z,15.20
2018-06-11T07:34:35.193Z,14.60
2018-06-11T07:37:04.591Z,18.03
2018-06-11T07:39:35.553Z,12.93
2018-06-11T07:42:04.620Z,13.50
2018-06-11T07:44:33.935Z,17.97
2018-06-11T07:47:03.301Z,15.43
2018-06-11T07:49:32.379Z,18.73
2018-06-11T07:52:01.469Z,14.83
2018-06-11T07:54:30.850Z,13.77
2018-06-11T07:57:00.461Z,19.20
2018-06-11T07:59:30.111Z,14.37
2018-06-11T08:01:59.438Z,14.83
2018-06-11T08:04:28.833Z,15.77
2018-06-11T08:06:58.302Z,19.80
2018-06-11T08:09:27.373Z,16.23
2018-06-11T08:11:56.769Z,19.70
2018-06-11T08:14:26.253Z,17.83
2018-06-11T08:16:55.766Z,14.43
2018-06-11T08:19:24.874Z,17.40
2018-06-11T08:21:54.080Z,15.60
2018-06-11T08:24:23.375Z,13.20
2018-06-11T08:26:52.421Z,13.00
2018-06-11T08:29:21.534Z,13.90
2018-06-11T08:31:50.612Z,12.93
2018-06-11T08:34:20.378Z,19.20
2018-06-11T08:36:49.477Z,21.20
2018-06-11T08:39:18.667Z,15.53
2018-06-11T08:41:47.837Z,15.10
2018-06-11T08:44:17.457Z,16.33
2018-06-11T08:46:47.430Z,15.97
2018-06-11T08:49:18.250Z,12.13
2018-06-11T08:51:47.338Z,13.83
2018-06-11T08:54:16.425Z,12.37
2018-06-11T08:56:46.037Z,12.90
2018-06-11T08:59:16.141Z,12.13
2018-06-11T09:01:45.257Z,14.27
2018-06-11T09:04:15.066Z,12.53
2018-06-11T09:06:46.375Z,13.00
2018-06-11T09:09:16.020Z,14.50
2018-06-11T09:11:45.350Z,11.80
2018-06-11T09:14:14.522Z,12.63
2018-06-11T09:16:45.098Z,9.97
2018-06-11T09:19:15.118Z,9.80
2018-06-11T09:21:45.505Z,13.37
2018-06-11T09:24:20.408Z,11.00
2018-06-11T09:26:49.453Z,14.03
2018-06-11T09:29:19.037Z,13.27
2018-06-11T09:31:49.359Z,11.27
2018-06-11T09:34:19.918Z,10.07
2018-06-11T09:36:49.493Z,12.67
2018-06-11T09:39:18.814Z,9.63
2018-06-11T09:41:48.125Z,9.37
2018-06-11T09:44:17.952Z,9.13
2018-06-11T09:46:51.329Z,10.70
2018-06-11T09:49:20.786Z,10.97
2018-06-11T09:51:50.144Z,7.47
2018-06-11T09:54:20.777Z,7.90
2018-06-11T09:56:50.327Z,7.90
2018-06-11T09:59:19.694Z,7.40
2018-06-11T10:01:49.026Z,7.10
2018-06-11T10:04:18.194Z,7.57
2018-06-11T10:06:47.544Z,6.73
2018-06-11T10:09:17.507Z,6.93
2018-06-11T10:11:48.115Z,6.83
2018-06-11T10:14:17.504Z,7.80
2018-06-11T10:16:48.233Z,6.57
2018-06-11T10:19:17.476Z,8.73
2018-06-11T10:21:46.598Z,6.50
2018-06-11T10:24:15.741Z,6.10
2018-06-11T10:26:44.862Z,7.50
2018-06-11T10:29:13.958Z,11.03
2018-06-11T10:31:43.273Z,6.23
2018-06-11T10:34:13.214Z,5.33
2018-06-11T10:36:42.429Z,5.03
2018-06-11T10:39:11.872Z,4.93
2018-06-11T10:41:41.158Z,5.73
2018-06-11T10:44:10.249Z,5.73
2018-06-11T10:46:39.669Z,5.27
2018-06-11T10:49:08.761Z,5.93
2018-06-11T10:51:37.960Z,5.20
2018-06-11T10:54:07.128Z,6.33
2018-06-11T10:56:36.215Z,5.53
2018-06-11T10:59:05.331Z,6.10
2018-06-11T11:01:34.636Z,7.20
2018-06-11T11:04:03.729Z,5.20
2018-06-11T11:06:32.788Z,4.60
2018-06-11T11:09:01.886Z,5.30
2018-06-11T11:11:31.240Z,5.03
2018-06-11T11:14:00.313Z,5.67
2018-06-11T11:16:29.824Z,5.47
2018-06-11T11:18:59.273Z,4.90
2018-06-11T11:21:28.321Z,4.60
2018-06-11T11:23:57.381Z,7.60
2018-06-11T11:26:26.620Z,5.10
2018-06-11T11:28:55.986Z,4.43
2018-06-11T11:31:25.183Z,5.00
2018-06-11T11:33:54.524Z,4.27
2018-06-11T11:36:23.616Z,5.40
2018-06-11T11:38:52.945Z,7.60
2018-06-11T11:41:22.148Z,4.47
2018-06-11T11:43:51.453Z,5.13
2018-06-11T11:46:21.061Z,4.60
2018-06-11T11:48:50.270Z,5.60
2018-06-11T11:51:19.359Z,5.60
2018-06-11T11:53:48.528Z,5.70
2018-06-11T11:56:17.758Z,7.50
2018-06-11T11:58:46.870Z,5.60
2018-06-11T12:01:16.323Z,5.37
2018-06-11T12:03:45.481Z,4.47
2018-06-11T12:06:14.603Z,4.80
2018-06-11T12:08:43.896Z,4.03
2018-06-11T12:11:13.346Z,3.90
2018-06-11T12:13:43.016Z,5.03
2018-06-11T12:16:12.497Z,4.30
2018-06-11T12:18:41.729Z,5.53
2018-06-11T12:21:10.915Z,4.17
2018-06-11T12:23:40.206Z,4.20
2018-06-11T12:26:09.488Z,3.90
2018-06-11T12:28:39.714Z,4.20
2018-06-11T12:31:08.876Z,4.93
2018-06-11T12:33:37.928Z,4.87
2018-06-11T12:36:07.215Z,4.60
2018-06-11T12:38:36.562Z,4.33
2018-06-11T12:41:05.861Z,3.80
2018-06-11T12:43:35.141Z,3.80
2018-06-11T12:46:04.384Z,3.27
2018-06-11T12:48:34.238Z,3.80
2018-06-11T12:51:03.295Z,6.83
2018-06-11T12:53:32.647Z,9.50
2018-06-11T12:56:01.799Z,3.40
2018-06-11T12:58:31.373Z,4.00
2018-06-11T13:01:00.496Z,3.50
2018-06-11T13:03:29.847Z,3.70
2018-06-11T13:05:58.914Z,5.27
2018-06-11T13:08:28.213Z,4.83
2018-06-11T13:10:57.419Z,3.73
2018-06-11T13:13:26.669Z,3.50
2018-06-11T13:15:55.896Z,3.90
2018-06-11T13:18:26.041Z,3.87
2018-06-11T13:20:57.351Z,3.80
2018-06-11T13:23:26.469Z,4.00
2018-06-11T13:25:55.921Z,3.57
2018-06-11T13:28:25.035Z,3.80
2018-06-11T13:30:54.545Z,4.57
2018-06-11T13:33:23.806Z,6.23
2018-06-11T13:35:53.057Z,4.97
2018-06-11T13:38:22.131Z,5.33
2018-06-11T13:40:52.736Z,5.13
2018-06-11T13:43:22.639Z,6.27
2018-06-11T13:45:51.862Z,4.67
2018-06-11T13:48:22.256Z,3.87
2018-06-11T13:50:58.425Z,3.97
2018-06-11T13:53:27.657Z,6.93
2018-06-11T13:55:59.215Z,5.40
2018-06-11T13:58:28.851Z,5.63
2018-06-11T14:00:59.911Z,9.13
2018-06-11T14:03:29.090Z,4.87
2018-06-11T14:05:58.485Z,4.50
2018-06-11T14:08:27.588Z,3.90
2018-06-11T14:10:56.692Z,3.63
2018-06-11T14:13:26.104Z,3.50
2018-06-11T14:15:55.152Z,4.33
2018-06-11T14:18:24.245Z,3.60
2018-06-11T14:20:53.784Z,3.80
2018-06-11T14:23:22.826Z,5.67
2018-06-11T14:25:52.049Z,3.57
2018-06-11T14:28:21.152Z,6.80
2018-06-11T14:30:50.497Z,3.90
2018-06-11T14:33:19.605Z,4.30
2018-06-11T14:35:48.942Z,4.10
2018-06-11T14:38:18.496Z,3.00
2018-06-11T14:40:47.578Z,3.53
2018-06-11T14:43:16.652Z,3.77
2018-06-11T14:45:45.701Z,5.37
2018-06-11T14:48:15.007Z,5.20
2018-06-11T14:50:44.077Z,6.20
2018-06-11T14:53:13.150Z,5.50
2018-06-11T14:55:42.702Z,8.60
2018-06-11T14:58:12.137Z,6.30
2018-06-11T15:00:41.329Z,4.17
2018-06-11T15:03:10.633Z,4.07
2018-06-11T15:05:39.691Z,5.03
2018-06-11T15:08:08.735Z,3.67
2018-06-11T15:10:37.840Z,3.83
2018-06-11T15:13:06.947Z,4.67
2018-06-11T15:15:36.014Z,4.67
2018-06-11T15:18:05.669Z,5.43
2018-06-11T15:20:34.737Z,7.57
2018-06-11T15:23:03.778Z,4.23
2018-06-11T15:25:32.989Z,6.20
2018-06-11T15:28:02.042Z,5.00
2018-06-11T15:30:31.102Z,7.13
2018-06-11T15:33:00.256Z,4.77
2018-06-11T15:35:29.357Z,5.07
2018-06-11T15:37:58.436Z,7.40
2018-06-11T15:40:27.505Z,4.87
2018-06-11T15:42:56.598Z,5.47
2018-06-11T15:45:25.694Z,3.80
2018-06-11T15:47:55.031Z,5.03
2018-06-11T15:50:24.102Z,6.43
2018-06-11T15:52:53.620Z,6.70
2018-06-11T15:55:22.749Z,5.23
2018-06-11T15:57:52.055Z,7.13
2018-06-11T16:00:21.514Z,4.13
2018-06-11T16:02:50.607Z,6.40
2018-06-11T16:05:19.759Z,8.20
2018-06-11T16:07:48.846Z,5.27
2018-06-11T16:10:17.941Z,7.23
2018-06-11T16:12:47.037Z,4.83
2018-06-11T16:15:16.121Z,6.43
2018-06-11T16:17:45.211Z,6.20
2018-06-11T16:20:14.300Z,5.03
2018-06-11T16:22:43.614Z,5.20
2018-06-11T16:25:12.804Z,5.10
2018-06-11T16:27:41.908Z,4.17
2018-06-11T16:30:11.039Z,9.03
2018-06-11T16:32:40.220Z,8.70
2018-06-11T16:35:09.632Z,5.33
2018-06-11T16:37:38.989Z,4.13
2018-06-11T16:40:08.229Z,4.43
2018-06-11T16:42:37.352Z,5.93
2018-06-11T16:45:06.693Z,7.10
2018-06-11T16:47:36.067Z,5.40
2018-06-11T16:50:05.118Z,4.53
2018-06-11T16:52:34.449Z,5.70
2018-06-11T16:55:03.606Z,5.80
2018-06-11T16:57:32.994Z,9.20
2018-06-11T17:00:02.378Z,4.10
2018-06-11T17:02:31.547Z,5.27
2018-06-11T17:05:00.703Z,4.70
2018-06-11T17:07:29.815Z,6.10
2018-06-11T17:09:59.032Z,5.80
2018-06-11T17:12:28.304Z,4.70
2018-06-11T17:14:57.678Z,9.70
2018-06-11T17:17:26.809Z,11.20
2018-06-11T17:19:56.077Z,7.10
2018-06-11T17:22:25.540Z,5.97
2018-06-11T17:24:54.785Z,6.47
2018-06-11T17:27:23.953Z,6.47
2018-06-11T17:30:03.347Z,7.13
2018-06-11T17:32:33.968Z,4.73
2018-06-11T17:35:03.056Z,4.93
2018-06-11T17:37:32.123Z,4.57
2018-06-11T17:40:01.522Z,6.60
2018-06-11T17:42:30.638Z,9.47
2018-06-11T17:44:59.771Z,8.50
2018-06-11T17:47:28.858Z,7.80
2018-06-11T17:49:58.809Z,8.90
2018-06-11T17:52:28.118Z,6.03
2018-06-11T17:54:57.241Z,8.70
2018-06-11T17:57:26.615Z,8.30
2018-06-11T17:59:55.720Z,7.40
2018-06-11T18:02:25.155Z,5.57
2018-06-11T18:04:54.331Z,5.70
2018-06-11T18:07:23.400Z,7.03
2018-06-11T18:09:52.864Z,5.93
2018-06-11T18:12:22.202Z,5.40
2018-06-11T18:14:51.406Z,4.70
2018-06-11T18:17:21.256Z,5.33
2018-06-11T18:19:50.595Z,7.27
2018-06-11T18:22:20.050Z,8.43
2018-06-11T18:24:49.428Z,6.57
2018-06-11T18:27:18.543Z,5.40
2018-06-11T18:29:47.649Z,6.80
2018-06-11T18:32:16.861Z,5.87
2018-06-11T18:34:46.179Z,4.73
2018-06-11T18:37:15.476Z,9.43
2018-06-11T18:39:44.577Z,5.20
2018-06-11T18:42:13.637Z,7.47
2018-06-11T18:44:43.010Z,8.00
2018-06-11T18:47:12.308Z,8.43
2018-06-11T18:49:41.377Z,8.53
2018-06-11T18:52:10.697Z,6.20
2018-06-11T18:54:40.098Z,7.03
2018-06-11T18:57:09.649Z,6.87
2018-06-11T18:59:38.950Z,7.30
2018-06-11T19:02:08.050Z,6.33
2018-06-11T19:04:37.502Z,6.03
2018-06-11T19:07:06.592Z,5.93
2018-06-11T19:09:35.743Z,8.40
2018-06-11T19:12:04.985Z,6.83
2018-06-11T19:14:34.330Z,10.33
2018-06-11T19:17:03.781Z,4.00
2018-06-11T19:19:33.095Z,12.17
2018-06-11T19:22:02.397Z,4.10
2018-06-11T19:24:31.509Z,10.10
2018-06-11T19:27:00.605Z,5.57
2018-06-11T19:29:29.685Z,9.47
2018-06-11T19:31:59.021Z,5.43
2018-06-11T19:34:28.149Z,13.20
2018-06-11T19:36:57.466Z,9.63
2018-06-11T19:39:26.616Z,10.23
2018-06-11T19:41:55.734Z,4.97
2018-06-11T19:44:24.833Z,6.70
2018-06-11T19:46:54.160Z,8.70
2018-06-11T19:49:23.438Z,7.17
2018-06-11T19:51:52.515Z,9.27
2018-06-11T19:54:21.693Z,9.73
2018-06-11T19:56:50.752Z,9.30
2018-06-11T19:59:19.829Z,5.43
2018-06-11T20:01:49.126Z,10.20
2018-06-11T20:04:18.633Z,9.60
2018-06-11T20:06:47.724Z,6.00
2018-06-11T20:09:16.930Z,5.30
2018-06-11T20:11:46.462Z,10.10
2018-06-11T20:14:15.761Z,8.50
2018-06-11T20:16:44.873Z,4.97
2018-06-11T20:19:14.276Z,6.13
2018-06-11T20:21:43.485Z,7.40
2018-06-11T20:24:12.763Z,7.37
2018-06-11T20:26:41.886Z,8.30
2018-06-11T20:29:11.316Z,6.93
2018-06-11T20:31:40.692Z,10.40
2018-06-11T20:34:10.041Z,4.73
2018-06-11T20:36:39.172Z,8.90
2018-06-11T20:39:08.626Z,7.47
2018-06-11T20:41:38.139Z,5.63
2018-06-11T20:44:07.533Z,11.67
2018-06-11T20:46:36.820Z,8.17
2018-06-11T20:49:05.977Z,6.40
2018-06-11T20:51:35.318Z,4.77
2018-06-11T20:54:04.526Z,4.90
2018-06-11T20:56:33.678Z,6.50
2018-06-11T20:59:03.475Z,5.87
2018-06-11T21:01:33.056Z,4.53
2018-06-11T21:04:02.291Z,4.60
2018-06-11T21:06:31.668Z,5.47
2018-06-11T21:09:00.923Z,5.00
2018-06-11T21:11:30.218Z,7.23
2018-06-11T21:13:59.601Z,6.50
2018-06-11T21:16:28.945Z,8.63
2018-06-11T21:18:58.256Z,6.07
2018-06-11T21:21:28.672Z,7.30
2018-06-11T21:23:57.879Z,6.00
2018-06-11T21:26:27.110Z,7.90
2018-06-11T21:28:56.800Z,8.10
2018-06-11T21:31:26.138Z,7.03
2018-06-11T21:33:55.439Z,12.90
2018-06-11T21:36:24.941Z,7.73
2018-06-11T21:38:54.341Z,8.17
2018-06-11T21:41:23.874Z,9.10
2018-06-11T21:43:53.875Z,7.90
2018-06-11T21:46:23.067Z,7.03
2018-06-11T21:48:52.373Z,5.93
2018-06-11T21:51:22.800Z,5.30
2018-06-11T21:53:52.057Z,8.03
2018-06-11T21:56:21.124Z,8.40
2018-06-11T21:58:50.777Z,8.30
2018-06-11T22:01:21.832Z,8.53
2018-06-11T22:03:51.533Z,6.07
2018-06-11T22:06:20.617Z,7.40
2018-06-11T22:08:49.681Z,5.60
2018-06-11T22:11:19.069Z,6.40
2018-06-11T22:13:48.249Z,6.73
2018-06-11T22:16:17.324Z,6.93
2018-06-11T22:18:46.485Z,5.80
2018-06-11T22:21:15.701Z,6.80
2018-06-11T22:23:44.953Z,8.67
2018-06-11T22:26:14.135Z,7.00
2018-06-11T22:28:43.277Z,7.43
2018-06-11T22:31:12.870Z,5.30
2018-06-11T22:33:43.338Z,7.83
2018-06-11T22:36:13.478Z,8.08
2018-06-11T22:38:43.510Z,7.30
2018-06-11T22:41:13.715Z,6.50
2018-06-11T22:43:43.297Z,4.60
2018-06-11T22:46:12.438Z,5.90
2018-06-11T22:48:41.720Z,6.20
2018-06-11T22:51:10.862Z,6.23
2018-06-11T22:53:40.853Z,6.93
2018-06-11T22:56:09.980Z,5.63
2018-06-11T22:58:39.050Z,9.53
2018-06-11T23:01:08.142Z,6.60
2018-06-11T23:03:37.329Z,10.47
2018-06-11T23:06:06.434Z,5.73
2018-06-11T23:08:35.601Z,6.73
2018-06-11T23:11:04.941Z,7.63
2018-06-11T23:13:35.792Z,6.87
2018-06-11T23:16:06.589Z,8.70
2018-06-11T23:18:37.732Z,7.27
2018-06-11T23:21:08.280Z,6.33
2018-06-11T23:23:38.112Z,8.20
2018-06-11T23:26:07.166Z,5.33
2018-06-11T23:28:36.495Z,6.10
2018-06-11T23:31:05.895Z,6.80
2018-06-11T23:33:34.961Z,6.50
2018-06-11T23:36:04.137Z,4.90
2018-06-11T23:38:34.171Z,8.13
2018-06-11T23:41:03.329Z,7.10
2018-06-11T23:43:32.405Z,5.93
2018-06-11T23:46:01.754Z,7.00
2018-06-11T23:48:30.860Z,9.43
2018-06-11T23:50:59.939Z,6.73
2018-06-11T23:53:29.009Z,7.17
2018-06-11T23:55:58.289Z,8.30
2018-06-11T23:58:27.370Z,6.17
